Time;durP1;ratioP1;P1;durP2;ratioP2;P2;SDS_P1;SDS_P2;PMS_P1;PMS_P2;Temp;Humidity;BMP_temperature;BMP_pressure;BME280_temperature;BME280_humidity;BME280_pressure;Samples;Min_cycle;Max_cycle;Signal;HPM_P1;HPM_P2
2021/05/31 00:00:25;;;;;;;4.73;2.83;;;11.70;1.00;;;;;;5105569;28;20448;-69
2021/05/31 00:02:54;;;;;;;4.70;2.73;;;11.70;1.00;;;;;;5105491;28;20457;-68
2021/05/31 00:05:24;;;;;;;4.50;2.53;;;11.60;1.00;;;;;;5105863;28;20457;-67
2021/05/31 00:07:51;;;;;;;4.63;3.17;;;11.60;1.00;;;;;;5106045;28;20484;-67
2021/05/31 00:10:18;;;;;;;3.73;2.70;;;11.60;1.00;;;;;;5106198;28;20452;-70
2021/05/31 00:12:45;;;;;;;3.70;2.70;;;11.60;1.00;;;;;;5106253;28;20469;-67
2021/05/31 00:15:11;;;;;;;3.63;3.03;;;11.50;1.00;;;;;;5105928;28;20445;-68
2021/05/31 00:17:40;;;;;;;6.40;3.23;;;11.50;1.00;;;;;;5105297;28;20473;-68
2021/05/31 00:20:09;;;;;;;7.57;3.00;;;11.50;1.00;;;;;;5105778;28;20457;-67
2021/05/31 00:22:35;;;;;;;2.53;2.33;;;11.50;1.00;;;;;;5105668;28;20468;-68
2021/05/31 00:25:02;;;;;;;4.37;2.77;;;11.40;1.00;;;;;;5104915;28;20770;-70
2021/05/31 00:27:28;;;;;;;4.63;4.23;;;11.40;1.00;;;;;;5104286;28;20475;-67
2021/05/31 00:29:55;;;;;;;3.80;2.50;;;11.40;1.00;;;;;;5105179;28;20457;-68
2021/05/31 00:32:22;;;;;;;2.90;2.53;;;11.30;1.00;;;;;;5103349;28;20485;-67
2021/05/31 00:34:48;;;;;;;3.67;2.90;;;11.30;1.00;;;;;;5104351;28;20506;-67
2021/05/31 00:37:15;;;;;;;4.53;3.47;;;11.20;1.00;;;;;;5103736;28;20526;-68
2021/05/31 00:39:43;;;;;;;3.97;2.70;;;11.20;1.00;;;;;;5103931;28;20465;-67
2021/05/31 00:42:10;;;;;;;4.53;2.50;;;11.20;1.00;;;;;;5103851;28;20535;-67
2021/05/31 00:44:36;;;;;;;4.63;3.13;;;11.10;1.00;;;;;;5104307;28;20454;-67
2021/05/31 00:47:04;;;;;;;5.23;3.00;;;11.10;1.00;;;;;;5103088;28;20461;-69
2021/05/31 00:49:36;;;;;;;4.70;2.93;;;11.10;1.00;;;;;;5103848;28;20468;-69
2021/05/31 00:52:04;;;;;;;3.30;2.83;;;11.10;1.00;;;;;;5104368;28;20760;-68
2021/05/31 00:54:30;;;;;;;3.30;2.80;;;11.00;1.00;;;;;;5103690;28;20487;-68
2021/05/31 00:56:57;;;;;;;5.30;3.73;;;11.00;1.00;;;;;;5103053;28;20957;-68
2021/05/31 00:59:23;;;;;;;4.27;2.90;;;11.00;1.00;;;;;;5102957;28;20457;-68
2021/05/31 01:01:50;;;;;;;3.50;2.40;;;10.90;1.00;;;;;;5102810;28;20457;-68
2021/05/31 01:04:18;;;;;;;3.50;3.20;;;10.90;4.30;;;;;;5102779;28;20461;-68
2021/05/31 01:06:53;;;;;;;3.47;2.70;;;10.90;21.50;;;;;;5102150;28;20453;-68
2021/05/31 01:09:28;;;;;;;4.70;3.17;;;10.80;44.80;;;;;;5101393;28;20486;-68
2021/05/31 01:12:00;;;;;;;4.67;3.40;;;10.80;67.90;;;;;;5101666;28;20548;-68
2021/05/31 01:14:34;;;;;;;4.03;3.40;;;10.70;88.80;;;;;;5102039;28;20510;-68
2021/05/31 01:17:06;;;;;;;4.87;2.93;;;10.70;99.90;;;;;;5101803;28;20461;-68
2021/05/31 01:19:58;;;;;;;4.50;3.20;;;10.60;99.90;;;;;;5102498;28;20446;-68
2021/05/31 01:22:26;;;;;;;5.43;2.97;;;10.60;99.90;;;;;;5102473;28;20442;-68
2021/05/31 01:25:04;;;;;;;3.53;3.10;;;10.50;99.90;;;;;;5102011;28;20836;-68
2021/05/31 01:27:44;;;;;;;3.10;2.50;;;10.40;99.90;;;;;;5102729;28;20504;-68
2021/05/31 01:30:15;;;;;;;3.23;2.90;;;10.40;99.90;;;;;;5103544;28;20460;-68
2021/05/31 01:32:47;;;;;;;7.27;3.00;;;10.40;99.90;;;;;;5103686;28;20512;-67
2021/05/31 01:35:16;;;;;;;3.20;2.90;;;10.30;99.90;;;;;;5103211;28;20471;-67
2021/05/31 01:37:43;;;;;;;3.93;3.20;;;10.30;99.90;;;;;;5103988;28;20530;-67
2021/05/31 01:40:11;;;;;;;3.20;2.87;;;10.30;99.90;;;;;;5103823;28;20453;-67
2021/05/31 01:42:38;;;;;;;5.70;3.00;;;10.20;99.90;;;;;;5103071;28;20520;-68
2021/05/31 01:45:10;;;;;;;3.30;2.97;;;10.20;99.90;;;;;;5102312;28;20464;-68
2021/05/31 01:47:38;;;;;;;4.63;3.17;;;10.20;99.90;;;;;;5102379;28;20434;-68
2021/05/31 01:50:05;;;;;;;3.70;2.90;;;10.10;1.00;;;;;;5102885;28;20544;-68
2021/05/31 01:52:32;;;;;;;5.87;4.10;;;10.10;1.00;;;;;;5102321;28;20544;-68
2021/05/31 01:54:59;;;;;;;5.40;3.67;;;10.10;1.00;;;;;;5102299;28;20453;-68
2021/05/31 01:57:27;;;;;;;4.27;2.83;;;10.00;1.00;;;;;;5101865;28;20499;-68
2021/05/31 01:59:53;;;;;;;3.90;3.40;;;10.00;1.00;;;;;;5101147;28;20463;-68
2021/05/31 02:02:20;;;;;;;3.70;2.90;;;10.00;1.00;;;;;;5101319;28;20489;-68
2021/05/31 02:04:48;;;;;;;7.10;3.20;;;9.90;1.00;;;;;;5101323;28;20470;-68
2021/05/31 02:07:14;;;;;;;4.60;3.97;;;9.90;1.00;;;;;;5101423;28;20460;-68
2021/05/31 02:09:40;;;;;;;4.63;3.33;;;9.90;1.00;;;;;;5100954;28;20453;-68
2021/05/31 02:12:09;;;;;;;10.73;3.63;;;9.90;1.00;;;;;;5101646;28;20461;-68
2021/05/31 02:14:45;;;;;;;3.93;3.53;;;9.90;1.00;;;;;;5100782;28;20785;-68
2021/05/31 02:17:21;;;;;;;5.40;3.30;;;9.80;1.00;;;;;;5101134;28;20465;-68
2021/05/31 02:19:53;;;;;;;3.67;2.93;;;9.80;69.50;;;;;;5102627;28;20513;-68
2021/05/31 02:22:20;;;;;;;6.97;3.40;;;9.80;99.90;;;;;;5104745;28;20446;-68
2021/05/31 02:24:48;;;;;;;4.50;3.43;;;9.70;99.90;;;;;;5108139;28;20457;-68
2021/05/31 02:27:16;;;;;;;4.50;3.37;;;9.70;99.90;;;;;;5106490;28;20983;-68
2021/05/31 02:29:43;;;;;;;4.57;3.23;;;9.80;99.90;;;;;;5106541;28;20468;-68
2021/05/31 02:32:09;;;;;;;5.40;3.77;;;9.80;99.90;;;;;;5107138;28;20492;-68
2021/05/31 02:34:35;;;;;;;4.30;3.40;;;9.70;99.90;;;;;;5107540;28;20510;-68
2021/05/31 02:37:04;;;;;;;5.40;3.60;;;9.70;99.90;;;;;;5106962;28;20481;-68
2021/05/31 02:39:30;;;;;;;4.57;4.13;;;9.70;99.90;;;;;;5109681;28;20454;-68
2021/05/31 02:41:56;;;;;;;6.63;4.03;;;9.70;99.90;;;;;;5106943;28;20502;-68
2021/05/31 02:44:22;;;;;;;6.00;3.70;;;9.70;1.00;;;;;;5101990;28;20477;-68
2021/05/31 02:46:49;;;;;;;4.90;3.87;;;9.70;1.00;;;;;;5101581;28;20458;-68
2021/05/31 02:49:15;;;;;;;5.50;4.10;;;9.60;1.00;;;;;;5102284;28;20468;-68
2021/05/31 02:51:42;;;;;;;5.93;3.70;;;9.60;1.00;;;;;;5103667;28;20464;-68
2021/05/31 02:54:12;;;;;;;3.80;3.37;;;9.60;1.00;;;;;;5106846;28;20453;-68
2021/05/31 02:56:38;;;;;;;4.90;4.20;;;9.60;1.00;;;;;;5110294;28;20524;-68
2021/05/31 02:59:04;;;;;;;4.53;3.90;;;9.50;1.00;;;;;;5110265;28;20455;-68
2021/05/31 03:01:31;;;;;;;4.30;3.50;;;9.50;99.90;;;;;;5111040;28;20988;-68
2021/05/31 03:03:57;;;;;;;3.80;3.27;;;9.40;99.90;;;;;;5108056;28;20504;-68
2021/05/31 03:06:23;;;;;;;5.37;3.73;;;9.40;1.00;;;;;;5104000;28;20977;-69
2021/05/31 03:08:50;;;;;;;6.93;4.20;;;9.40;1.00;;;;;;5106111;28;20446;-68
2021/05/31 03:11:17;;;;;;;6.20;4.10;;;9.30;1.00;;;;;;5105871;28;20456;-68
2021/05/31 03:13:46;;;;;;;4.80;3.80;;;9.30;18.30;;;;;;5105158;28;20464;-68
2021/05/31 03:16:12;;;;;;;4.67;4.07;;;9.30;99.90;;;;;;5105169;28;20515;-68
2021/05/31 03:18:39;;;;;;;6.13;3.53;;;9.20;1.00;;;;;;5106274;28;20477;-68
2021/05/31 03:21:05;;;;;;;6.73;3.57;;;9.20;1.00;;;;;;5105167;28;20453;-68
2021/05/31 03:23:31;;;;;;;8.13;4.57;;;9.20;99.90;;;;;;5109186;28;20460;-68
2021/05/31 03:25:57;;;;;;;4.30;3.90;;;9.20;1.00;;;;;;5112319;28;20453;-68
2021/05/31 03:28:25;;;;;;;7.40;4.63;;;9.30;1.00;;;;;;5113915;28;20453;-68
2021/05/31 03:30:51;;;;;;;5.57;4.00;;;9.30;1.00;;;;;;5107012;28;20755;-68
2021/05/31 03:33:17;;;;;;;5.90;4.77;;;9.30;1.00;;;;;;5105728;28;20481;-68
2021/05/31 03:35:44;;;;;;;6.87;4.27;;;9.30;56.50;;;;;;5105515;28;20463;-68
2021/05/31 03:38:10;;;;;;;5.63;4.20;;;9.30;99.90;;;;;;5104857;28;20488;-68
2021/05/31 03:40:36;;;;;;;6.70;3.80;;;9.30;47.70;;;;;;5105989;28;20528;-68
2021/05/31 03:43:03;;;;;;;4.33;3.93;;;9.40;1.00;;;;;;5103882;28;20518;-68
2021/05/31 03:45:30;;;;;;;5.40;4.20;;;9.40;99.90;;;;;;5103532;28;20453;-68
2021/05/31 03:47:56;;;;;;;5.03;3.90;;;9.40;1.00;;;;;;5104196;28;20457;-68
2021/05/31 03:50:23;;;;;;;7.93;4.50;;;9.40;1.00;;;;;;5104000;28;20464;-68
2021/05/31 03:52:51;;;;;;;8.80;3.80;;;9.40;1.00;;;;;;5104304;28;20457;-68
2021/05/31 03:55:18;;;;;;;5.07;3.80;;;9.40;1.00;;;;;;5103299;28;20463;-68
2021/05/31 03:57:44;;;;;;;7.70;4.30;;;9.40;1.00;;;;;;5102430;28;20574;-68
2021/05/31 04:00:12;;;;;;;6.43;5.73;;;9.40;1.00;;;;;;5103906;28;20463;-68
2021/05/31 04:02:40;;;;;;;6.53;4.67;;;9.50;1.00;;;;;;5105956;28;20521;-68
2021/05/31 04:05:09;;;;;;;8.40;4.27;;;9.50;1.00;;;;;;5103412;28;20971;-68
2021/05/31 04:13:13;;;;;;;5.10;3.70;;;9.50;1.00;;;;;;5102461;28;20509;-68
2021/05/31 04:15:39;;;;;;;5.17;3.90;;;9.50;1.00;;;;;;5103276;28;20457;-68
2021/05/31 04:18:07;;;;;;;11.13;4.43;;;9.50;99.90;;;;;;5103022;28;20510;-68
2021/05/31 04:20:34;;;;;;;8.27;4.60;;;9.60;99.90;;;;;;5102027;28;20457;-68
2021/05/31 04:23:00;;;;;;;7.03;4.43;;;9.60;99.90;;;;;;5102467;28;20483;-68
2021/05/31 04:25:29;;;;;;;4.87;4.37;;;9.70;99.90;;;;;;5102879;28;20453;-68
2021/05/31 04:27:56;;;;;;;6.93;5.00;;;9.70;99.90;;;;;;5103551;28;20446;-68
2021/05/31 04:30:23;;;;;;;6.20;4.70;;;9.80;1.00;;;;;;5102388;28;20449;-69
2021/05/31 04:32:49;;;;;;;5.53;4.60;;;9.90;1.00;;;;;;5100951;28;20477;-68
2021/05/31 04:35:17;;;;;;;4.97;4.47;;;9.90;82.90;;;;;;5102168;28;20482;-70
2021/05/31 04:37:43;;;;;;;5.57;4.20;;;10.00;1.00;;;;;;5102188;28;20481;-68
2021/05/31 04:40:10;;;;;;;5.73;4.17;;;10.10;1.00;;;;;;5102344;28;20457;-68
2021/05/31 04:42:37;;;;;;;5.93;3.77;;;10.10;1.00;;;;;;5102313;28;20457;-68
2021/05/31 04:45:05;;;;;;;6.43;4.53;;;10.20;99.90;;;;;;5103300;28;20762;-68
2021/05/31 04:47:31;;;;;;;6.10;4.83;;;10.20;1.00;;;;;;5103623;28;20510;-69
2021/05/31 04:49:58;;;;;;;7.37;3.90;;;10.30;1.00;;;;;;5104272;28;20472;-68
2021/05/31 04:52:25;;;;;;;7.97;5.00;;;10.30;1.00;;;;;;5102466;28;20457;-67
2021/05/31 04:54:52;;;;;;;7.70;5.57;;;10.40;1.00;;;;;;5102373;28;20458;-68
2021/05/31 04:57:18;;;;;;;5.40;4.47;;;10.50;71.60;;;;;;5102119;28;20546;-68
2021/05/31 04:59:44;;;;;;;6.13;4.83;;;10.60;99.90;;;;;;5101849;28;20515;-68
2021/05/31 05:02:10;;;;;;;6.33;3.97;;;10.70;1.00;;;;;;5102698;28;20491;-67
2021/05/31 05:04:37;;;;;;;6.73;4.17;;;10.70;1.00;;;;;;5101372;28;20468;-67
2021/05/31 05:07:05;;;;;;;4.70;4.30;;;10.80;1.00;;;;;;5100569;28;20458;-67
2021/05/31 05:09:33;;;;;;;7.93;4.60;;;10.80;1.00;;;;;;5099704;28;20468;-69
2021/05/31 05:11:59;;;;;;;5.27;4.73;;;10.80;1.00;;;;;;5099465;28;20774;-67
2021/05/31 05:14:26;;;;;;;5.13;4.20;;;10.80;1.00;;;;;;5099689;28;20531;-69
2021/05/31 05:16:52;;;;;;;5.70;4.23;;;10.90;1.00;;;;;;5099236;28;20460;-69
2021/05/31 05:19:19;;;;;;;7.30;5.30;;;10.90;1.00;;;;;;5099537;28;20826;-68
2021/05/31 05:21:46;;;;;;;16.00;6.40;;;11.00;1.00;;;;;;5099047;28;20457;-68
2021/05/31 05:24:12;;;;;;;4.90;3.70;;;11.10;1.00;;;;;;5099665;28;20461;-68
2021/05/31 05:26:40;;;;;;;6.07;4.90;;;11.20;1.00;;;;;;5100925;28;20773;-69
2021/05/31 05:29:07;;;;;;;6.40;4.40;;;11.30;99.90;;;;;;5101425;28;20518;-69
2021/05/31 05:31:37;;;;;;;6.73;5.10;;;11.30;99.90;;;;;;5101518;28;20838;-68
2021/05/31 05:34:05;;;;;;;7.20;4.47;;;11.40;99.90;;;;;;5100922;28;20446;-68
2021/05/31 05:36:39;;;;;;;10.07;4.97;;;11.50;99.90;;;;;;5100966;28;20449;-68
2021/05/31 05:39:18;;;;;;;7.67;4.77;;;11.50;99.90;;;;;;5100456;28;20466;-67
2021/05/31 05:41:57;;;;;;;5.20;4.17;;;11.60;99.90;;;;;;5101564;28;20783;-69
2021/05/31 05:49:55;;;;;;;5.07;4.40;;;11.70;99.90;;;;;;5100430;28;20448;-68
2021/05/31 05:52:21;;;;;;;6.80;4.70;;;11.80;99.90;;;;;;5100731;28;20465;-67
2021/05/31 05:54:49;;;;;;;6.40;4.43;;;11.80;99.90;;;;;;5102457;28;20533;-69
2021/05/31 05:57:17;;;;;;;7.60;6.80;;;11.90;99.90;;;;;;5101349;28;20510;-68
2021/05/31 05:59:43;;;;;;;7.67;5.27;;;12.00;99.90;;;;;;5102471;28;20457;-68
2021/05/31 06:02:09;;;;;;;6.23;5.20;;;12.00;99.90;;;;;;5104362;28;20449;-67
2021/05/31 06:04:39;;;;;;;9.10;4.40;;;12.10;99.90;;;;;;5104107;28;20457;-67
2021/05/31 06:07:05;;;;;;;4.47;4.10;;;12.10;99.90;;;;;;5098613;28;20460;-68
2021/05/31 06:09:32;;;;;;;5.47;4.43;;;12.20;99.90;;;;;;5098683;28;20468;-68
2021/05/31 06:11:58;;;;;;;6.87;5.30;;;12.30;99.90;;;;;;5098197;28;20450;-68
2021/05/31 06:14:25;;;;;;;7.03;5.37;;;12.30;99.90;;;;;;5098632;28;20461;-68
2021/05/31 06:16:52;;;;;;;8.90;4.90;;;12.40;71.50;;;;;;5097494;28;20453;-68
2021/05/31 06:19:18;;;;;;;6.63;5.00;;;12.50;48.50;;;;;;5098040;28;20481;-68
2021/05/31 06:21:44;;;;;;;7.43;4.67;;;12.60;12.00;;;;;;5098355;28;20457;-68
2021/05/31 06:24:12;;;;;;;6.00;4.87;;;12.70;1.00;;;;;;5098142;28;20922;-68
2021/05/31 06:26:38;;;;;;;4.73;4.23;;;12.80;1.00;;;;;;5097501;28;20556;-69
2021/05/31 06:29:05;;;;;;;5.43;4.60;;;12.90;1.00;;;;;;5097740;28;20449;-68
2021/05/31 06:31:32;;;;;;;8.90;4.57;;;12.90;1.00;;;;;;5097624;28;20472;-69
2021/05/31 06:33:58;;;;;;;6.67;4.17;;;13.00;1.00;;;;;;5097089;28;20493;-69
2021/05/31 06:36:25;;;;;;;5.90;4.50;;;13.10;1.00;;;;;;5097569;28;20534;-68
2021/05/31 06:38:53;;;;;;;5.30;4.33;;;13.10;1.00;;;;;;5097314;28;20499;-68
2021/05/31 06:41:19;;;;;;;6.97;4.50;;;13.30;1.00;;;;;;5097959;28;20457;-69
2021/05/31 06:43:45;;;;;;;7.80;5.17;;;13.30;1.00;;;;;;5098067;28;20543;-67
2021/05/31 06:46:13;;;;;;;7.10;4.87;;;13.40;1.00;;;;;;5098537;28;20487;-66
2021/05/31 06:48:40;;;;;;;4.53;4.13;;;13.50;1.00;;;;;;5095711;28;20457;-67
2021/05/31 06:51:07;;;;;;;8.60;5.03;;;13.60;1.00;;;;;;5095259;28;20461;-67
2021/05/31 06:53:34;;;;;;;8.07;4.23;;;13.70;1.00;;;;;;5095657;28;20909;-67
2021/05/31 06:56:00;;;;;;;4.60;4.10;;;13.80;1.00;;;;;;5094609;28;20780;-67
2021/05/31 06:58:26;;;;;;;7.23;5.23;;;13.90;99.90;;;;;;5095628;28;20488;-67
2021/05/31 07:00:53;;;;;;;6.07;5.00;;;14.00;99.90;;;;;;5095446;28;20453;-67
2021/05/31 07:03:19;;;;;;;8.20;4.50;;;14.00;99.90;;;;;;5096570;28;20518;-67
2021/05/31 07:05:46;;;;;;;5.40;4.40;;;14.10;99.90;;;;;;5095554;28;20841;-67
2021/05/31 07:08:13;;;;;;;5.70;3.30;;;14.20;99.90;;;;;;5095308;28;20453;-67
2021/05/31 07:10:39;;;;;;;7.73;4.67;;;14.30;99.90;;;;;;5095277;28;20544;-67
2021/05/31 07:13:05;;;;;;;4.70;4.10;;;14.30;99.90;;;;;;5095314;28;20497;-67
2021/05/31 07:15:33;;;;;;;6.70;3.97;;;14.50;99.90;;;;;;5095350;28;20457;-67
2021/05/31 07:18:00;;;;;;;6.43;5.10;;;14.60;99.90;;;;;;5094882;28;20573;-67
2021/05/31 07:20:26;;;;;;;4.73;4.27;;;14.60;99.90;;;;;;5095671;28;20464;-66
2021/05/31 07:22:54;;;;;;;5.57;4.10;;;14.70;99.90;;;;;;5095809;28;20783;-66
2021/05/31 07:25:20;;;;;;;7.23;4.90;;;14.80;99.90;;;;;;5096585;28;20535;-67
2021/05/31 07:27:47;;;;;;;5.73;4.20;;;14.90;99.90;;;;;;5097426;28;20507;-68
2021/05/31 07:30:17;;;;;;;5.17;4.63;;;14.90;99.90;;;;;;5097105;28;20468;-68
2021/05/31 07:32:43;;;;;;;6.47;3.97;;;14.90;99.90;;;;;;5096787;28;20492;-68
2021/05/31 07:35:10;;;;;;;6.33;4.10;;;15.00;99.90;;;;;;5097344;28;20468;-68
2021/05/31 07:37:37;;;;;;;6.03;4.00;;;15.10;99.90;;;;;;5097459;28;20477;-68
2021/05/31 07:40:08;;;;;;;4.33;3.93;;;15.20;96.70;;;;;;5097912;28;20454;-68
2021/05/31 07:42:34;;;;;;;11.23;3.93;;;15.30;90.50;;;;;;5097276;28;20441;-68
2021/05/31 07:45:00;;;;;;;5.37;3.90;;;15.30;90.00;;;;;;5097363;28;20468;-68
2021/05/31 07:47:26;;;;;;;5.43;4.73;;;15.50;70.10;;;;;;5097709;28;20465;-67
2021/05/31 07:49:53;;;;;;;7.00;5.17;;;15.50;52.10;;;;;;5096663;28;20453;-69
2021/05/31 07:52:20;;;;;;;7.37;5.50;;;15.60;29.80;;;;;;5097258;28;20824;-68
2021/05/31 07:54:47;;;;;;;6.77;4.40;;;15.60;23.00;;;;;;5097658;28;20449;-68
2021/05/31 07:57:15;;;;;;;5.13;4.63;;;15.60;20.50;;;;;;5098626;28;20453;-69
2021/05/31 07:59:41;;;;;;;4.87;3.90;;;15.70;16.70;;;;;;5100915;28;20460;-67
2021/05/31 08:02:08;;;;;;;7.00;5.37;;;15.80;25.40;;;;;;5101595;28;20464;-69
2021/05/31 08:04:34;;;;;;;6.23;4.80;;;15.80;23.00;;;;;;5101403;28;20453;-67
2021/05/31 08:07:01;;;;;;;6.03;4.17;;;16.00;21.50;;;;;;5100591;28;20453;-68
2021/05/31 08:09:28;;;;;;;4.87;4.37;;;16.00;20.10;;;;;;5103700;28;20449;-68
2021/05/31 08:11:55;;;;;;;5.20;4.70;;;16.10;15.00;;;;;;5104624;28;20457;-68
2021/05/31 08:14:23;;;;;;;6.87;3.70;;;16.30;4.70;;;;;;5103741;28;20468;-68
2021/05/31 08:16:49;;;;;;;6.23;3.77;;;16.40;1.00;;;;;;5102709;28;20453;-68
2021/05/31 08:19:16;;;;;;;7.73;4.40;;;16.50;1.00;;;;;;5103585;28;20492;-68
2021/05/31 08:21:42;;;;;;;4.63;3.97;;;16.60;1.00;;;;;;5102120;28;20925;-68
2021/05/31 08:24:09;;;;;;;5.77;4.07;;;16.70;1.00;;;;;;5103235;28;20517;-68
2021/05/31 08:26:36;;;;;;;3.70;3.30;;;16.80;1.00;;;;;;5103331;28;20818;-67
2021/05/31 08:29:04;;;;;;;4.43;3.70;;;16.90;1.00;;;;;;5104641;28;20470;-68
2021/05/31 08:31:32;;;;;;;5.23;4.47;;;16.90;1.00;;;;;;5105513;28;20462;-68
2021/05/31 08:33:58;;;;;;;9.37;5.90;;;17.00;1.00;;;;;;5104057;28;20481;-69
2021/05/31 08:36:25;;;;;;;5.50;3.47;;;17.00;1.00;;;;;;5105874;28;20450;-67
2021/05/31 08:38:55;;;;;;;3.63;2.97;;;17.00;1.00;;;;;;5107845;28;20477;-67
2021/05/31 08:41:22;;;;;;;5.73;3.30;;;17.00;1.00;;;;;;5104768;28;20441;-67
2021/05/31 08:43:48;;;;;;;4.20;3.10;;;17.10;1.00;;;;;;5104366;28;20450;-67
2021/05/31 08:46:14;;;;;;;4.43;2.70;;;17.20;1.00;;;;;;5103520;28;20453;-68
2021/05/31 08:48:42;;;;;;;3.20;2.73;;;17.20;1.00;;;;;;5104079;28;20837;-68
2021/05/31 08:51:08;;;;;;;6.93;2.73;;;17.20;1.00;;;;;;5103098;28;20454;-68
2021/05/31 08:53:36;;;;;;;3.43;3.13;;;17.30;1.00;;;;;;5103924;28;20943;-68
2021/05/31 08:56:02;;;;;;;4.07;3.13;;;17.30;1.00;;;;;;5103980;28;20461;-67
2021/05/31 08:58:29;;;;;;;4.30;3.10;;;17.30;1.00;;;;;;5102711;28;20809;-67
2021/05/31 09:00:55;;;;;;;4.33;3.00;;;17.30;1.00;;;;;;5101317;28;20804;-69
2021/05/31 09:03:21;;;;;;;5.50;3.33;;;17.40;1.00;;;;;;5101065;28;20468;-68
2021/05/31 09:05:49;;;;;;;5.03;2.60;;;17.50;1.00;;;;;;5102855;28;20457;-68
2021/05/31 09:08:17;;;;;;;4.27;2.37;;;17.50;1.00;;;;;;5103983;28;20453;-68
2021/05/31 09:10:47;;;;;;;3.90;2.60;;;17.60;1.00;;;;;;5102782;28;20847;-68
2021/05/31 09:13:27;;;;;;;3.20;2.27;;;17.60;1.00;;;;;;5102298;28;20932;-68
2021/05/31 09:16:04;;;;;;;4.70;2.40;;;17.60;1.00;;;;;;5101858;28;20445;-68
2021/05/31 09:18:31;;;;;;;3.70;2.70;;;17.60;1.00;;;;;;5100600;28;20487;-68
2021/05/31 09:21:09;;;;;;;2.90;2.43;;;17.60;1.00;;;;;;5101838;28;20461;-68
2021/05/31 09:23:36;;;;;;;3.40;2.40;;;17.70;1.00;;;;;;5104015;28;20484;-68
2021/05/31 09:26:04;;;;;;;4.20;2.60;;;17.80;1.00;;;;;;5102511;28;20469;-68
2021/05/31 09:28:31;;;;;;;6.73;2.40;;;17.80;1.00;;;;;;5100536;28;20510;-68
2021/05/31 09:30:57;;;;;;;9.63;2.60;;;17.90;1.00;;;;;;5100928;28;20460;-69
2021/05/31 09:33:24;;;;;;;6.40;5.03;;;17.90;1.00;;;;;;5102656;28;20568;-67
2021/05/31 09:35:51;;;;;;;3.23;2.93;;;18.00;1.00;;;;;;5103756;28;20483;-68
2021/05/31 09:38:20;;;;;;;2.57;2.37;;;18.00;1.00;;;;;;5103975;28;20479;-67
2021/05/31 09:40:54;;;;;;;2.13;1.93;;;18.00;1.00;;;;;;5103851;28;20536;-67
2021/05/31 09:43:24;;;;;;;3.27;1.87;;;18.00;1.00;;;;;;5104953;28;20928;-67
2021/05/31 09:45:50;;;;;;;6.90;3.00;;;18.10;1.00;;;;;;5103092;28;20565;-68
2021/05/31 09:48:17;;;;;;;10.07;3.17;;;18.10;1.00;;;;;;5102535;28;20496;-68
2021/05/31 09:50:53;;;;;;;13.67;3.03;;;18.10;1.00;;;;;;5101193;28;20483;-68
2021/05/31 09:53:21;;;;;;;2.30;2.10;;;18.20;1.00;;;;;;5101693;28;20444;-68
2021/05/31 09:55:47;;;;;;;3.30;1.80;;;18.30;1.00;;;;;;5101703;28;20458;-68
2021/05/31 09:58:16;;;;;;;4.03;1.97;;;18.40;1.00;;;;;;5101439;28;21020;-68
2021/05/31 10:00:47;;;;;;;2.90;2.57;;;18.40;1.00;;;;;;5102591;28;20461;-68
2021/05/31 10:03:23;;;;;;;3.17;2.00;;;18.50;1.00;;;;;;5102754;28;20441;-68
2021/05/31 10:05:58;;;;;;;2.10;1.90;;;18.50;1.00;;;;;;5100220;28;20437;-69
2021/05/31 10:08:43;;;;;;;2.60;2.40;;;18.60;1.00;;;;;;5098434;28;20500;-69
2021/05/31 10:11:11;;;;;;;3.00;2.07;;;18.60;1.00;;;;;;5096714;28;20446;-67
2021/05/31 10:13:42;;;;;;;4.10;1.97;;;18.60;1.00;;;;;;5097192;28;20933;-67
2021/05/31 10:16:10;;;;;;;1.67;1.57;;;18.70;1.00;;;;;;5097112;28;20487;-67
2021/05/31 10:18:40;;;;;;;2.00;1.80;;;18.70;1.00;;;;;;5096753;28;20485;-68
2021/05/31 10:21:07;;;;;;;2.90;2.27;;;18.80;1.00;;;;;;5097354;28;20438;-69
2021/05/31 10:23:35;;;;;;;2.17;1.97;;;18.80;1.00;;;;;;5096710;28;20790;-68
2021/05/31 10:26:04;;;;;;;2.10;1.90;;;19.00;1.00;;;;;;5098695;28;20458;-69
2021/05/31 10:28:33;;;;;;;2.70;1.63;;;19.00;1.00;;;;;;5097178;28;20469;-69
2021/05/31 10:31:01;;;;;;;2.20;2.00;;;19.00;1.00;;;;;;5098397;28;20511;-67
2021/05/31 10:33:28;;;;;;;9.80;1.73;;;19.10;1.00;;;;;;5096566;28;20485;-68
2021/05/31 10:35:58;;;;;;;3.00;1.73;;;19.30;1.00;;;;;;5098017;28;20805;-69
2021/05/31 10:38:31;;;;;;;5.13;1.80;;;19.30;1.00;;;;;;5097550;28;20472;-67
2021/05/31 10:40:58;;;;;;;2.13;1.97;;;19.30;1.00;;;;;;5096598;28;20449;-69
2021/05/31 10:43:26;;;;;;;4.97;2.10;;;19.40;1.00;;;;;;5095815;28;20786;-68
2021/05/31 10:46:02;;;;;;;2.00;1.80;;;19.30;1.00;;;;;;5095899;28;20464;-68
2021/05/31 10:48:31;;;;;;;3.80;2.13;;;19.40;1.00;;;;;;5096024;28;20433;-68
2021/05/31 10:50:59;;;;;;;2.17;1.97;;;19.40;1.00;;;;;;5096327;28;20453;-68
2021/05/31 10:53:30;;;;;;;4.97;2.63;;;19.50;1.00;;;;;;5096507;28;20514;-68
2021/05/31 10:56:00;;;;;;;3.43;1.40;;;19.60;1.00;;;;;;5095709;28;20450;-68
2021/05/31 10:58:35;;;;;;;1.70;1.60;;;19.70;1.00;;;;;;5098339;28;20481;-68
2021/05/31 11:01:04;;;;;;;2.40;1.63;;;19.90;1.00;;;;;;5096557;28;20452;-67
2021/05/31 11:03:31;;;;;;;2.40;1.50;;;20.00;1.00;;;;;;5096034;28;20454;-67
2021/05/31 11:05:58;;;;;;;2.07;1.87;;;20.10;1.00;;;;;;5096140;28;20479;-69
2021/05/31 11:08:29;;;;;;;3.67;2.67;;;20.30;1.00;;;;;;5096047;28;20449;-68
2021/05/31 11:11:01;;;;;;;1.80;1.57;;;20.40;1.00;;;;;;5095646;28;20461;-68
2021/05/31 11:13:29;;;;;;;2.90;1.77;;;20.60;1.00;;;;;;5096684;28;20449;-68
2021/05/31 11:16:08;;;;;;;2.17;1.87;;;20.80;1.00;;;;;;5095166;28;20940;-67
2021/05/31 11:18:43;;;;;;;4.43;1.67;;;21.40;1.00;;;;;;5096559;28;20522;-68
2021/05/31 11:21:25;;;;;;;2.47;1.60;;;22.20;1.00;;;;;;5096381;28;20499;-70
2021/05/31 11:24:01;;;;;;;1.60;1.50;;;23.40;1.00;;;;;;5095715;28;20457;-68
2021/05/31 11:26:30;;;;;;;2.00;1.50;;;24.80;1.00;;;;;;5096303;28;20455;-67
2021/05/31 11:29:02;;;;;;;2.87;1.80;;;25.90;1.00;;;;;;5096599;28;20453;-68
2021/05/31 11:31:29;;;;;;;2.40;1.30;;;26.90;1.00;;;;;;5096639;28;20792;-68
2021/05/31 11:34:00;;;;;;;1.50;1.40;;;27.80;1.00;;;;;;5095628;28;20482;-69
2021/05/31 11:36:32;;;;;;;4.03;2.00;;;28.70;1.00;;;;;;5097368;28;20818;-69
2021/05/31 11:39:00;;;;;;;1.93;1.60;;;29.40;1.00;;;;;;5096533;28;20462;-69
2021/05/31 11:41:40;;;;;;;3.30;1.77;;;30.10;1.00;;;;;;5096408;28;20955;-73
2021/05/31 11:44:08;;;;;;;2.47;1.73;;;30.70;1.00;;;;;;5100015;28;20523;-68
2021/05/31 11:46:48;;;;;;;1.60;1.50;;;31.10;1.00;;;;;;5098752;28;20937;-67
2021/05/31 11:49:14;;;;;;;1.70;1.30;;;31.60;1.00;;;;;;5099393;28;20778;-67
2021/05/31 11:51:41;;;;;;;3.40;1.60;;;32.20;1.00;;;;;;5098460;28;20449;-67
2021/05/31 11:54:11;;;;;;;2.80;1.80;;;32.50;1.00;;;;;;5098819;28;20780;-67
2021/05/31 11:56:39;;;;;;;1.57;1.47;;;32.80;1.00;;;;;;5098356;28;20437;-67
2021/05/31 11:59:08;;;;;;;2.20;1.60;;;33.00;1.00;;;;;;5098909;28;20968;-68
2021/05/31 12:01:35;;;;;;;3.30;1.50;;;33.30;1.00;;;;;;5099053;28;20457;-67
2021/05/31 12:04:03;;;;;;;2.27;1.40;;;33.50;1.00;;;;;;5101732;28;21050;-68
2021/05/31 12:06:29;;;;;;;1.97;1.70;;;33.40;1.00;;;;;;5101596;28;20457;-68
2021/05/31 12:08:55;;;;;;;1.33;1.17;;;33.40;1.00;;;;;;5098828;28;20445;-68
2021/05/31 12:11:24;;;;;;;1.67;1.37;;;33.50;1.00;;;;;;5098484;28;20503;-68
2021/05/31 12:14:00;;;;;;;2.03;1.50;;;33.90;1.00;;;;;;5099588;28;20457;-68
2021/05/31 12:16:26;;;;;;;1.77;1.67;;;34.10;1.00;;;;;;5100074;28;20437;-68
2021/05/31 12:18:53;;;;;;;4.17;1.47;;;34.20;1.00;;;;;;5098392;28;20480;-67
2021/05/31 12:21:19;;;;;;;1.60;1.20;;;34.30;1.00;;;;;;5097925;28;20457;-70
2021/05/31 12:23:48;;;;;;;4.30;2.23;;;34.50;1.00;;;;;;5098611;28;20487;-67
2021/05/31 12:26:14;;;;;;;1.93;1.60;;;34.40;1.00;;;;;;5097878;28;20449;-67
2021/05/31 12:28:40;;;;;;;1.90;1.40;;;33.60;1.00;;;;;;5098453;28;20468;-68
2021/05/31 12:31:11;;;;;;;2.73;1.80;;;33.70;1.00;;;;;;5098225;28;20461;-68
2021/05/31 12:33:37;;;;;;;2.53;1.90;;;33.90;1.00;;;;;;5098227;28;20492;-68
2021/05/31 12:36:04;;;;;;;1.87;1.40;;;33.70;1.00;;;;;;5098072;28;20514;-68
2021/05/31 12:38:31;;;;;;;3.10;1.60;;;33.50;1.00;;;;;;5097789;28;20477;-68
2021/05/31 12:40:59;;;;;;;3.53;1.50;;;33.20;1.00;;;;;;5098083;28;20522;-68
2021/05/31 12:43:33;;;;;;;2.80;1.53;;;33.30;1.00;;;;;;5097749;28;20468;-68
2021/05/31 12:46:00;;;;;;;1.70;1.37;;;33.70;1.00;;;;;;5098110;28;20437;-66
2021/05/31 12:48:28;;;;;;;1.80;1.60;;;34.10;1.00;;;;;;5098266;28;20816;-67
2021/05/31 12:50:57;;;;;;;3.10;1.50;;;34.30;1.00;;;;;;5097696;28;20453;-68
2021/05/31 12:53:27;;;;;;;1.50;1.37;;;34.80;1.00;;;;;;5096618;28;20460;-69
2021/05/31 12:56:00;;;;;;;5.00;1.53;;;35.40;1.00;;;;;;5097260;28;20437;-68
2021/05/31 12:58:27;;;;;;;2.60;1.90;;;36.10;1.00;;;;;;5097290;28;20469;-68
2021/05/31 13:00:53;;;;;;;1.77;1.47;;;36.70;1.00;;;;;;5097540;28;20555;-68
2021/05/31 13:03:20;;;;;;;1.90;1.40;;;37.20;1.00;;;;;;5097338;28;20463;-69
2021/05/31 13:05:49;;;;;;;5.83;1.93;;;37.40;1.00;;;;;;5097690;28;20464;-67
2021/05/31 13:08:17;;;;;;;7.10;1.63;;;36.50;1.00;;;;;;5097349;28;20928;-69
2021/05/31 13:10:48;;;;;;;4.27;2.03;;;36.00;1.00;;;;;;5097178;28;20453;-68